Time;durP1;ratioP1;P1;durP2;ratioP2;P2;SDS_P1;SDS_P2;PMS_P1;PMS_P2;Temp;Humidity;BMP_temperature;BMP_pressure;BME280_temperature;BME280_humidity;BME280_pressure;Samples;Min_cycle;Max_cycle;Signal;HPM_P1;HPM_P2
2020/08/20 00:01:00;;;;;;;0.2;0.1;;;;;;;16.99;83.85059;934.5601;;;;
2020/08/20 00:03:27;;;;;;;0.9;0.5;;;;;;;17.08;84.13477;934.5648;;;;
2020/08/20 00:05:54;;;;;;;1.6;0.5;;;;;;;17.19;83.27441;934.5898;;;;
2020/08/20 00:08:23;;;;;;;1;0.5;;;;;;;17.36;82.79688;934.5712;;;;
2020/08/20 00:10:54;;;;;;;1.2;0.4;;;;;;;17.51;82.39453;934.5238;;;;
2020/08/20 00:13:26;;;;;;;4.2;0.4;;;;;;;17.46;81.72461;934.3881;;;;
2020/08/20 00:15:52;;;;;;;0.3;0.3;;;;;;;17.37;82.13574;934.4438;;;;
2020/08/20 00:18:17;;;;;;;1.2;0.5;;;;;;;17.4;82.26953;934.4351;;;;
2020/08/20 00:20:43;;;;;;;0.8;0.4;;;;;;;17.5;81.93066;934.457;;;;
2020/08/20 00:23:09;;;;;;;0.5;0.3;;;;;;;17.53;81.4248;934.4073;;;;
2020/08/20 00:25:34;;;;;;;1.8;0.6;;;;;;;17.47;81.77441;934.4972;;;;
2020/08/20 00:28:01;;;;;;;6.1;0.5;;;;;;;17.47;81.86621;934.4361;;;;
2020/08/20 00:30:28;;;;;;;0.2;0.1;;;;;;;17.41;82.14551;934.4604;;;;
2020/08/20 00:32:54;;;;;;;0.3;0.3;;;;;;;17.42;82.23828;934.3895;;;;
2020/08/20 00:35:19;;;;;;;1;0.4;;;;;;;17.44;82.2207;934.4657;;;;
2020/08/20 00:37:46;;;;;;;0.4;0.3;;;;;;;17.33;82.89551;934.3963;;;;
2020/08/20 00:40:11;;;;;;;4.8;0.4;;;;;;;17.32;82.88281;934.4705;;;;
2020/08/20 00:42:37;;;;;;;0.7;0.5;;;;;;;17.3;82.74023;934.4702;;;;
2020/08/20 00:45:04;;;;;;;0.3;0.2;;;;;;;17.21;81.92188;934.4373;;;;
2020/08/20 00:47:28;;;;;;;0.3;0.3;;;;;;;17.27;82.60547;934.4017;;;;
2020/08/20 00:49:55;;;;;;;0.4;0.3;;;;;;;17.26;80.94629;934.4075;;;;
2020/08/20 00:52:20;;;;;;;0.4;0.2;;;;;;;17.28;82.60742;934.3764;;;;
2020/08/20 00:54:45;;;;;;;2.5;0.3;;;;;;;17.21;83.5332;934.3713;;;;
2020/08/20 00:59:39;;;;;;;0.9;0.4;;;;;;;17.35;83.16602;934.4144;;;;
2020/08/20 01:02:06;;;;;;;0.2;0.2;;;;;;;17.38;82.88281;934.4571;;;;
2020/08/20 01:04:32;;;;;;;0.3;0.3;;;;;;;17.35;82.93555;934.4231;;;;
2020/08/20 01:06:56;;;;;;;0.3;0.2;;;;;;;17.28;83.32617;934.4778;;;;
2020/08/20 01:09:23;;;;;;;0.2;0.2;;;;;;;17.36;82.54199;934.4955;;;;
2020/08/20 01:11:48;;;;;;;0.3;0.3;;;;;;;17.33;82.49023;934.4503;;;;
2020/08/20 01:14:13;;;;;;;0.5;0.3;;;;;;;17.38;82.39453;934.4308;;;;
2020/08/20 01:16:42;;;;;;;0.5;0.4;;;;;;;17.48;82.31055;934.4028;;;;
2020/08/20 01:19:07;;;;;;;0.7;0.6;;;;;;;17.6;81.75195;934.3879;;;;
2020/08/20 01:21:32;;;;;;;0.8;0.4;;;;;;;17.63;82.3252;934.2813;;;;
2020/08/20 01:23:58;;;;;;;3.3;0.5;;;;;;;17.63;82.19824;934.3989;;;;
2020/08/20 01:26:23;;;;;;;0.5;0.3;;;;;;;17.61;81.71875;934.4537;;;;
2020/08/20 01:28:50;;;;;;;0.3;0.3;;;;;;;17.45;82.52539;934.3206;;;;
2020/08/20 01:31:16;;;;;;;1;0.6;;;;;;;17.47;83.16699;934.3427;;;;
2020/08/20 01:33:41;;;;;;;0.7;0.3;;;;;;;17.56;82.34863;934.3792;;;;
2020/08/20 01:36:06;;;;;;;0.4;0.3;;;;;;;17.59;82.0498;934.4124;;;;
2020/08/20 01:38:31;;;;;;;1.1;0.5;;;;;;;17.67;81.99609;934.4412;;;;
2020/08/20 01:40:56;;;;;;;0.6;0.5;;;;;;;17.75;81.53516;934.397;;;;
2020/08/20 01:43:22;;;;;;;0.6;0.4;;;;;;;17.72;81.7041;934.3792;;;;
2020/08/20 01:45:50;;;;;;;0.6;0.4;;;;;;;17.85;80.96094;934.4006;;;;
2020/08/20 01:48:21;;;;;;;0.3;0.2;;;;;;;17.86;80.81152;934.4075;;;;
2020/08/20 01:50:46;;;;;;;0.5;0.3;;;;;;;17.76;81.29297;934.3445;;;;
2020/08/20 01:53:11;;;;;;;0.3;0.3;;;;;;;17.65;82.1084;934.337;;;;
2020/08/20 01:55:37;;;;;;;0.7;0.4;;;;;;;17.61;82.22949;934.3474;;;;
2020/08/20 01:58:03;;;;;;;0.6;0.4;;;;;;;17.61;82.23926;934.4023;;;;
2020/08/20 02:00:35;;;;;;;0.6;0.5;;;;;;;17.69;82.00098;934.3517;;;;
2020/08/20 02:03:03;;;;;;;1.3;0.6;;;;;;;17.58;82.60547;934.3006;;;;
2020/08/20 02:05:30;;;;;;;7.8;0.7;;;;;;;17.48;83.0625;934.353;;;;
2020/08/20 02:07:56;;;;;;;0.4;0.3;;;;;;;17.44;83.25293;934.3104;;;;
2020/08/20 02:10:26;;;;;;;0.5;0.5;;;;;;;17.39;83.53223;934.3748;;;;
2020/08/20 02:13:01;;;;;;;2;0.5;;;;;;;17.27;84.41309;934.4083;;;;
2020/08/20 02:15:45;;;;;;;0.6;0.4;;;;;;;17.18;84.67578;934.3856;;;;
2020/08/20 02:18:12;;;;;;;1.1;0.6;;;;;;;17.34;84.35742;934.368;;;;
2020/08/20 02:20:37;;;;;;;0.5;0.2;;;;;;;17.49;83.16895;934.3864;;;;
2020/08/20 02:23:04;;;;;;;0.6;0.2;;;;;;;17.45;83.60254;934.3343;;;;
2020/08/20 02:25:30;;;;;;;1.4;0.7;;;;;;;17.46;83.89453;934.3719;;;;
2020/08/20 02:27:55;;;;;;;0.4;0.2;;;;;;;17.48;84.0498;934.3368;;;;
2020/08/20 02:30:24;;;;;;;0.3;0.3;;;;;;;17.51;83.95117;934.4037;;;;
2020/08/20 02:32:49;;;;;;;0.5;0.3;;;;;;;17.52;83.81348;934.319;;;;
2020/08/20 02:35:14;;;;;;;0.3;0.1;;;;;;;17.61;82.56543;934.3628;;;;
2020/08/20 02:37:39;;;;;;;0.8;0.4;;;;;;;17.71;82.93066;934.3223;;;;
2020/08/20 02:40:04;;;;;;;0.3;0.3;;;;;;;17.85;81.77441;934.2927;;;;
2020/08/20 02:42:30;;;;;;;0.9;0.4;;;;;;;17.87;81.02246;934.2285;;;;
2020/08/20 02:44:55;;;;;;;0.5;0.3;;;;;;;18.04;79.68359;934.3332;;;;
2020/08/20 02:47:20;;;;;;;0.8;0.4;;;;;;;18.12;80.11621;934.3441;;;;
2020/08/20 02:49:48;;;;;;;0.8;0.4;;;;;;;18.15;79.84277;934.2353;;;;
2020/08/20 02:52:13;;;;;;;1.1;0.3;;;;;;;18.19;79.93066;934.2617;;;;
2020/08/20 02:54:38;;;;;;;0.3;0.2;;;;;;;17.96;81.36426;934.3004;;;;
2020/08/20 02:57:03;;;;;;;0.5;0.4;;;;;;;17.69;82.75488;934.3058;;;;
2020/08/20 02:59:29;;;;;;;0.5;0.5;;;;;;;17.64;83.15137;934.3664;;;;
2020/08/20 03:01:54;;;;;;;0.6;0.4;;;;;;;17.72;82.79492;934.334;;;;
2020/08/20 03:04:19;;;;;;;5.2;0.5;;;;;;;17.84;81.9834;934.2645;;;;
2020/08/20 03:06:44;;;;;;;0.4;0.4;;;;;;;17.72;82.67773;934.2569;;;;
2020/08/20 03:09:13;;;;;;;0.7;0.4;;;;;;;17.75;82.92773;934.2271;;;;
2020/08/20 03:11:38;;;;;;;0.6;0.3;;;;;;;17.69;83.19629;934.2857;;;;
2020/08/20 03:14:04;;;;;;;1.7;0.7;;;;;;;17.61;83.95801;934.3272;;;;
2020/08/20 03:16:31;;;;;;;2.5;0.8;;;;;;;17.74;82.82129;934.4044;;;;
2020/08/20 03:18:56;;;;;;;1.3;0.3;;;;;;;17.62;83.65625;934.4407;;;;
2020/08/20 03:21:21;;;;;;;2;0.5;;;;;;;17.73;82.54102;934.3339;;;;
2020/08/20 03:23:46;;;;;;;1;0.5;;;;;;;17.77;82.94336;934.473;;;;
2020/08/20 03:26:15;;;;;;;0.7;0.5;;;;;;;17.8;83.33301;934.4328;;;;
2020/08/20 03:28:40;;;;;;;0.3;0.3;;;;;;;17.91;81.6582;934.4601;;;;
2020/08/20 03:31:07;;;;;;;1.8;0.4;;;;;;;18.06;79.70996;934.4738;;;;
2020/08/20 03:33:32;;;;;;;0.7;0.2;;;;;;;18.24;78.92969;934.4016;;;;
2020/08/20 03:35:57;;;;;;;0.6;0.2;;;;;;;18.37;78.53516;934.3329;;;;
2020/08/20 03:38:22;;;;;;;0.2;0.2;;;;;;;18.37;78.40723;934.3837;;;;
2020/08/20 03:40:48;;;;;;;0.4;0.2;;;;;;;18.25;80.05957;934.3949;;;;
2020/08/20 03:43:13;;;;;;;0.4;0.3;;;;;;;18.16;80.82227;934.3912;;;;
2020/08/20 03:45:38;;;;;;;5.3;0.2;;;;;;;18.17;80.96094;934.3815;;;;
2020/08/20 03:48:08;;;;;;;6.3;0.5;;;;;;;18.21;81.21387;934.3176;;;;
2020/08/20 03:50:37;;;;;;;0.6;0.4;;;;;;;18.1;80.69434;934.3323;;;;
2020/08/20 03:53:03;;;;;;;0.2;0.2;;;;;;;18.18;80.02344;934.3109;;;;
2020/08/20 03:55:28;;;;;;;4.6;0.6;;;;;;;18.21;79.43555;934.3691;;;;
2020/08/20 03:57:53;;;;;;;0.4;0.3;;;;;;;18.3;79.41699;934.3411;;;;
2020/08/20 04:02:30;;;;;;;0.4;0.3;;;;;;;18.33;78.08496;934.3251;;;;
2020/08/20 04:04:55;;;;;;;1.2;0.4;;;;;;;18.36;77.90625;934.392;;;;
2020/08/20 04:07:25;;;;;;;1.7;0.4;;;;;;;18.43;77.52148;934.4025;;;;
2020/08/20 04:09:52;;;;;;;0.3;0.3;;;;;;;18.42;77.27637;934.4252;;;;
2020/08/20 04:12:17;;;;;;;0.7;0.4;;;;;;;18.43;78.08008;934.4242;;;;
2020/08/20 04:14:42;;;;;;;0.5;0.3;;;;;;;18.33;79.73633;934.4211;;;;
2020/08/20 04:17:07;;;;;;;0.7;0.4;;;;;;;18.29;80.47363;934.4705;;;;
2020/08/20 04:19:32;;;;;;;0.5;0.5;;;;;;;18.18;81.23145;934.5197;;;;
2020/08/20 04:21:57;;;;;;;0.4;0.4;;;;;;;17.97;82.36621;934.4989;;;;
2020/08/20 04:24:23;;;;;;;0.6;0.3;;;;;;;18.06;82.19727;934.53;;;;
2020/08/20 04:26:50;;;;;;;0.4;0.3;;;;;;;18.11;81.91602;934.5837;;;;
2020/08/20 04:29:18;;;;;;;0.5;0.4;;;;;;;18.23;81.33301;934.5672;;;;
2020/08/20 04:31:44;;;;;;;0.5;0.5;;;;;;;18.38;81.53613;934.6028;;;;
2020/08/20 04:34:09;;;;;;;0.3;0.3;;;;;;;18.33;80.97949;934.6097;;;;
2020/08/20 04:36:35;;;;;;;0.3;0.3;;;;;;;18.43;80.70703;934.6525;;;;
2020/08/20 04:39:00;;;;;;;0.8;0.5;;;;;;;18.43;79.99805;934.658;;;;
2020/08/20 04:41:28;;;;;;;0.5;0.4;;;;;;;18.39;79.92188;934.7361;;;;
2020/08/20 04:43:53;;;;;;;0.6;0.3;;;;;;;18.17;79.84766;934.7528;;;;
2020/08/20 04:46:18;;;;;;;1.3;0.5;;;;;;;18.22;79.85742;934.6656;;;;
2020/08/20 04:48:43;;;;;;;3.3;0.4;;;;;;;18.35;79.71777;934.7462;;;;
2020/08/20 04:51:09;;;;;;;0.5;0.3;;;;;;;18.47;79.19043;934.8127;;;;
2020/08/20 04:53:34;;;;;;;1;0.4;;;;;;;18.56;79.05762;934.7555;;;;
2020/08/20 04:56:00;;;;;;;0.6;0.4;;;;;;;18.59;79.50391;934.8658;;;;
2020/08/20 04:58:26;;;;;;;1;0.5;;;;;;;18.67;79.62402;934.8337;;;;
2020/08/20 05:00:52;;;;;;;8.8;1.1;;;;;;;18.74;79.46191;934.8889;;;;
2020/08/20 05:03:17;;;;;;;1.8;0.5;;;;;;;18.66;79.19141;934.8123;;;;
2020/08/20 05:05:42;;;;;;;0.2;0.2;;;;;;;18.71;78.99023;934.8633;;;;
2020/08/20 05:08:07;;;;;;;0.6;0.5;;;;;;;18.53;80.15723;934.9481;;;;
2020/08/20 05:10:33;;;;;;;1;0.4;;;;;;;18.55;80.04395;934.921;;;;
2020/08/20 05:12:58;;;;;;;4.4;0.8;;;;;;;18.55;79.34668;934.9023;;;;
2020/08/20 05:15:32;;;;;;;0.4;0.3;;;;;;;18.66;79.0166;934.8718;;;;
2020/08/20 05:17:57;;;;;;;0.4;0.3;;;;;;;18.6;80.04102;934.9415;;;;
2020/08/20 05:20:22;;;;;;;0.6;0.3;;;;;;;18.6;78.83105;934.8898;;;;
2020/08/20 05:22:48;;;;;;;0.5;0.3;;;;;;;18.76;79.2793;934.8668;;;;
2020/08/20 05:25:15;;;;;;;1.3;0.5;;;;;;;18.94;79.14844;934.9409;;;;
2020/08/20 05:27:42;;;;;;;0.8;0.4;;;;;;;18.98;78.05078;934.9246;;;;
2020/08/20 05:30:10;;;;;;;2.6;0.9;;;;;;;18.9;76.18457;934.9641;;;;
2020/08/20 05:32:39;;;;;;;1.9;1.1;;;;;;;19.11;76.07031;934.9164;;;;
2020/08/20 05:35:07;;;;;;;2.7;0.8;;;;;;;19.17;76.98828;934.9769;;;;
2020/08/20 05:37:34;;;;;;;1.2;0.8;;;;;;;19.24;74.09082;935.0105;;;;
2020/08/20 05:39:59;;;;;;;1;0.2;;;;;;;19.4;74.20996;935.0406;;;;
2020/08/20 05:42:27;;;;;;;0.2;0.2;;;;;;;19.46;73.97363;935.0891;;;;
2020/08/20 05:44:52;;;;;;;1;0.4;;;;;;;19.51;73.50488;935.0546;;;;
2020/08/20 05:47:17;;;;;;;1.8;0.7;;;;;;;19.46;74.60449;935.1108;;;;
2020/08/20 05:49:43;;;;;;;1;0.6;;;;;;;19.49;75.86816;935.2053;;;;
2020/08/20 05:52:07;;;;;;;1.5;0.7;;;;;;;19.67;76.45996;935.2222;;;;
2020/08/20 05:55:00;;;;;;;8.6;0.8;;;;;;;19.72;75.68652;935.2595;;;;
2020/08/20 05:57:25;;;;;;;2.1;0.5;;;;;;;19.81;75.71191;935.2488;;;;
2020/08/20 05:59:52;;;;;;;0.5;0.5;;;;;;;19.97;74.95703;935.2902;;;;
2020/08/20 06:03:30;;;;;;;0.5;0.4;;;;;;;19.99;74.87988;935.2943;;;;
2020/08/20 06:06:00;;;;;;;1.2;0.6;;;;;;;20.01;75.30273;935.3236;;;;
2020/08/20 06:08:25;;;;;;;1;0.8;;;;;;;19.99;75.82324;935.3737;;;;
2020/08/20 06:10:59;;;;;;;10.1;1.2;;;;;;;19.95;75.29395;935.3279;;;;
2020/08/20 06:13:29;;;;;;;0.5;0.4;;;;;;;19.76;75.27148;935.3763;;;;
2020/08/20 06:15:54;;;;;;;6;1.1;;;;;;;19.6;77.09863;935.3283;;;;
2020/08/20 06:18:19;;;;;;;2.3;0.7;;;;;;;19.61;76.26074;935.3484;;;;
2020/08/20 06:20:44;;;;;;;2.8;0.4;;;;;;;19.69;76.54199;935.3309;;;;
2020/08/20 06:23:09;;;;;;;0.2;0.2;;;;;;;19.77;75.93945;935.4755;;;;
2020/08/20 06:25:35;;;;;;;0.6;0.4;;;;;;;19.91;75.53125;935.4786;;;;
2020/08/20 06:28:00;;;;;;;0.4;0.3;;;;;;;20.05;74.9375;935.4788;;;;
2020/08/20 06:30:31;;;;;;;2;0.5;;;;;;;19.24;76.76758;935.4626;;;;
2020/08/20 06:32:56;;;;;;;1.3;0.7;;;;;;;19.16;77.72168;935.4888;;;;
2020/08/20 06:35:23;;;;;;;5.3;0.9;;;;;;;19.39;76.17578;935.4843;;;;
2020/08/20 06:38:29;;;;;;;1.3;0.7;;;;;;;19.38;76.91992;935.5062;;;;
2020/08/20 06:40:55;;;;;;;2.2;0.8;;;;;;;19.61;76.28418;935.5114;;;;
2020/08/20 06:43:20;;;;;;;0.4;0.2;;;;;;;19.52;77.02832;935.5549;;;;
2020/08/20 06:45:47;;;;;;;0.5;0.5;;;;;;;19.51;77.51465;935.5842;;;;
2020/08/20 06:48:15;;;;;;;2.2;0.4;;;;;;;19.84;76.82617;935.5745;;;;
2020/08/20 06:50:45;;;;;;;1.6;1.1;;;;;;;19.61;77.71875;935.6181;;;;
2020/08/20 06:53:10;;;;;;;1.2;0.4;;;;;;;19.99;76.60547;935.6259;;;;
2020/08/20 06:55:35;;;;;;;0.9;0.5;;;;;;;20.17;76.05469;935.6333;;;;
2020/08/20 06:58:02;;;;;;;0.5;0.4;;;;;;;20.18;74.79688;935.6661;;;;
2020/08/20 07:00:30;;;;;;;0.4;0.4;;;;;;;20.18;75.47266;935.6743;;;;
2020/08/20 07:02:56;;;;;;;3.3;0.7;;;;;;;20.46;74.83105;935.7365;;;;
2020/08/20 07:05:21;;;;;;;0.4;0.3;;;;;;;20.57;73.93945;935.7902;;;;
2020/08/20 07:07:47;;;;;;;0.6;0.4;;;;;;;20.56;73.24902;935.7946;;;;
2020/08/20 07:10:13;;;;;;;2.5;1;;;;;;;20.52;74.11719;935.8857;;;;
2020/08/20 07:12:38;;;;;;;0.4;0.4;;;;;;;20.71;73.88086;935.8628;;;;
2020/08/20 07:15:03;;;;;;;6.4;2.1;;;;;;;20.75;73.11621;935.9551;;;;
2020/08/20 07:17:28;;;;;;;15;5.9;;;;;;;20.66;73.21875;935.9808;;;;
2020/08/20 07:19:53;;;;;;;7.6;2.3;;;;;;;20.85;72.99121;935.995;;;;
2020/08/20 07:22:21;;;;;;;0.5;0.4;;;;;;;21.01;73.31055;936.0059;;;;
2020/08/20 07:24:45;;;;;;;2.7;1.4;;;;;;;20.98;71.58691;935.9445;;;;
2020/08/20 07:27:13;;;;;;;1.4;0.4;;;;;;;20.95;71.12695;936.0369;;;;
2020/08/20 07:29:38;;;;;;;4.8;0.3;;;;;;;21.07;73.50684;935.9734;;;;
2020/08/20 07:32:03;;;;;;;1.6;1.3;;;;;;;21.17;72.54199;936.0111;;;;
2020/08/20 07:34:28;;;;;;;0.6;0.4;;;;;;;20.99;69.40039;936.0424;;;;
2020/08/20 07:36:53;;;;;;;1.1;0.6;;;;;;;20.77;72.10254;936.1205;;;;
2020/08/20 07:39:18;;;;;;;1.8;1.2;;;;;;;20.78;72.79199;936.1631;;;;
2020/08/20 07:41:43;;;;;;;1;0.6;;;;;;;20.87;72.23535;936.1563;;;;
2020/08/20 07:44:09;;;;;;;0.8;0.5;;;;;;;20.95;71.64063;936.0984;;;;
2020/08/20 07:46:33;;;;;;;1.4;0.3;;;;;;;21.02;70.02539;936.1052;;;;
2020/08/20 07:48:59;;;;;;;0.5;0.1;;;;;;;21.06;70.66406;936.0861;;;;
2020/08/20 07:51:24;;;;;;;0.5;0.4;;;;;;;21.07;71.61426;936.1829;;;;
2020/08/20 07:53:49;;;;;;;0.8;0.5;;;;;;;20.83;72.88281;936.2234;;;;
2020/08/20 07:56:14;;;;;;;1.6;0.3;;;;;;;20.85;74.42871;936.2575;;;;
2020/08/20 07:58:39;;;;;;;0.2;0.2;;;;;;;21.08;74.46875;936.1841;;;;
2020/08/20 08:01:05;;;;;;;0.3;0.3;;;;;;;21.35;74.1748;936.2144;;;;
2020/08/20 08:03:30;;;;;;;0.9;0.6;;;;;;;21.39;73.11719;936.2679;;;;
2020/08/20 08:05:55;;;;;;;0.8;0.5;;;;;;;21.34;73.96094;936.2747;;;;
2020/08/20 08:08:20;;;;;;;5.6;0.6;;;;;;;21.31;74.06152;936.3267;;;;
2020/08/20 08:10:45;;;;;;;0.5;0.3;;;;;;;21.41;74.125;936.35;;;;
2020/08/20 08:13:10;;;;;;;1.9;0.9;;;;;;;21.39;74.19238;936.3337;;;;
2020/08/20 08:15:36;;;;;;;0.3;0.3;;;;;;;21.22;74.84375;936.3122;;;;
2020/08/20 08:18:01;;;;;;;0.5;0.5;;;;;;;21.3;74.95117;936.2258;;;;
2020/08/20 08:20:26;;;;;;;1.2;0.6;;;;;;;21.34;73.66895;936.2683;;;;
2020/08/20 08:22:51;;;;;;;3;0.7;;;;;;;21.54;74.12402;936.2744;;;;
2020/08/20 08:25:21;;;;;;;0.6;0.4;;;;;;;21.69;73.16602;936.2901;;;;
2020/08/20 08:27:47;;;;;;;0.2;0.2;;;;;;;21.86;71.51953;936.3312;;;;
2020/08/20 08:30:12;;;;;;;1.8;0.4;;;;;;;22.11;69.77637;936.2147;;;;
2020/08/20 08:32:40;;;;;;;0.8;0.7;;;;;;;22.19;68.61719;936.317;;;;
2020/08/20 08:35:08;;;;;;;0.2;0.2;;;;;;;22.04;66.39063;936.3696;;;;
2020/08/20 08:37:33;;;;;;;2.7;0.4;;;;;;;22.11;66.30664;936.3452;;;;
2020/08/20 08:39:58;;;;;;;0;0;;;;;;;22.14;66.49902;936.3278;;;;
2020/08/20 08:42:23;;;;;;;1;0.5;;;;;;;22.23;65.19922;936.3342;;;;
2020/08/20 08:44:48;;;;;;;0.2;0.2;;;;;;;22.56;65.73926;936.2991;;;;
2020/08/20 08:47:15;;;;;;;0.7;0.4;;;;;;;22.83;64.91113;936.2767;;;;
2020/08/20 08:49:40;;;;;;;0.1;0.1;;;;;;;23.17;65.17188;936.3002;;;;
2020/08/20 08:52:05;;;;;;;0.5;0.2;;;;;;;23.43;63.32715;936.376;;;;
2020/08/20 08:54:30;;;;;;;0.9;0.7;;;;;;;23.34;63.08203;936.3978;;;;
2020/08/20 08:56:55;;;;;;;0.3;0.2;;;;;;;23.49;63.5625;936.4014;;;;
2020/08/20 08:59:20;;;;;;;0.2;0.1;;;;;;;23.59;59.05957;936.3495;;;;
2020/08/20 09:01:46;;;;;;;1.3;0.4;;;;;;;23.64;61.10059;936.3502;;;;
2020/08/20 09:04:10;;;;;;;0.6;0.4;;;;;;;23.84;58.26855;936.3563;;;;
2020/08/20 09:06:36;;;;;;;0.1;0.1;;;;;;;23.86;58.42188;936.2986;;;;
2020/08/20 09:09:01;;;;;;;0.2;0.1;;;;;;;24.11;57.47754;936.2817;;;;
2020/08/20 09:11:26;;;;;;;3.3;0.5;;;;;;;24.23;57.24805;936.3136;;;;
2020/08/20 09:13:54;;;;;;;0.2;0.2;;;;;;;24.07;58.83789;936.3096;;;;
2020/08/20 09:16:19;;;;;;;0.8;0.5;;;;;;;24.18;57.41797;936.3117;;;;
2020/08/20 09:18:43;;;;;;;0.4;0.4;;;;;;;24.19;58.08887;936.2961;;;;
2020/08/20 09:21:08;;;;;;;2.1;0.7;;;;;;;24.54;60.13867;936.3347;;;;
2020/08/20 09:23:34;;;;;;;2.2;0.6;;;;;;;24.64;56.50879;936.2711;;;;
2020/08/20 09:25:59;;;;;;;0.5;0.3;;;;;;;24.88;55.77246;936.3018;;;;
2020/08/20 09:28:24;;;;;;;0.8;0.4;;;;;;;25.46;54.3457;936.2112;;;;
2020/08/20 09:30:49;;;;;;;0.4;0.2;;;;;;;26.5;50.66016;936.1997;;;;
2020/08/20 09:33:14;;;;;;;0.3;0.2;;;;;;;27.7;50.50977;936.1326;;;;
2020/08/20 09:35:39;;;;;;;0.1;0.1;;;;;;;28.98;48.9043;936.1761;;;;
2020/08/20 09:38:05;;;;;;;0.1;0.1;;;;;;;29.83;42.68652;936.1133;;;;
2020/08/20 09:40:30;;;;;;;0.1;0.1;;;;;;;29.94;43.05469;936.1331;;;;
2020/08/20 09:42:55;;;;;;;0.6;0.2;;;;;;;30.69;41.0957;936.0937;;;;
2020/08/20 09:45:20;;;;;;;0.1;0.1;;;;;;;30.78;47.06836;936.0825;;;;
2020/08/20 09:47:45;;;;;;;0.4;0.3;;;;;;;29.83;49.50879;936.0864;;;;
2020/08/20 09:50:10;;;;;;;0.1;0.1;;;;;;;29.97;49.07031;936.0614;;;;
2020/08/20 09:52:36;;;;;;;2;0.5;;;;;;;29.92;47.78906;936.081;;;;
2020/08/20 09:55:01;;;;;;;2.2;0.8;;;;;;;29.39;51.56934;936.0309;;;;
2020/08/20 09:57:26;;;;;;;0;0;;;;;;;29.63;46.11328;936.0029;;;;
2020/08/20 09:59:51;;;;;;;0.8;0.2;;;;;;;29.88;45.66211;936.0056;;;;
2020/08/20 10:02:16;;;;;;;0.2;0.1;;;;;;;30.46;43.92871;936.0097;;;;
2020/08/20 10:04:41;;;;;;;1;0.2;;;;;;;30.97;43.57129;935.967;;;;
2020/08/20 10:07:06;;;;;;;0.3;0.2;;;;;;;30.8;45.01367;935.955;;;;
2020/08/20 10:09:32;;;;;;;0.2;0.1;;;;;;;30.3;44.97559;935.9625;;;;
2020/08/20 10:11:57;;;;;;;0.3;0.2;;;;;;;31.02;41.37598;935.93;;;;
2020/08/20 10:14:22;;;;;;;0.2;0.2;;;;;;;31.31;42.27637;935.93;;;;
2020/08/20 10:16:47;;;;;;;0.5;0.3;;;;;;;31.44;43.59277;935.8022;;;;
2020/08/20 10:19:12;;;;;;;0.1;0.1;;;;;;;32.27;40.93848;935.8539;;;;
2020/08/20 10:21:37;;;;;;;3.2;0.7;;;;;;;31.68;44.41895;935.7976;;;;
2020/08/20 10:24:02;;;;;;;0.3;0.3;;;;;;;31.46;43.36816;935.765;;;;
2020/08/20 10:26:27;;;;;;;0;0;;;;;;;32.13;41.74121;935.7267;;;;
2020/08/20 10:28:52;;;;;;;0.3;0.2;;;;;;;33.84;35.08789;935.7441;;;;
2020/08/20 10:31:18;;;;;;;0.6;0.2;;;;;;;35.03;32.86328;935.7555;;;;
2020/08/20 10:33:43;;;;;;;0.1;0.1;;;;;;;35.82;32.94434;935.6981;;;;
2020/08/20 10:36:08;;;;;;;0.1;0.1;;;;;;;36.77;30.71094;935.6661;;;;
2020/08/20 10:38:33;;;;;;;0.2;0;;;;;;;37.41;29.78418;935.6866;;;;
2020/08/20 10:40:58;;;;;;;0.1;0.1;;;;;;;37.05;28.94824;935.6195;;;;
2020/08/20 10:43:23;;;;;;;0;0;;;;;;;37.97;27.84082;935.5717;;;;
2020/08/20 10:45:48;;;;;;;0.1;0.1;;;;;;;38.55;27.53516;935.5736;;;;
2020/08/20 10:48:14;;;;;;;0;0;;;;;;;39.48;26.20313;935.5455;;;;
2020/08/20 10:50:39;;;;;;;0;0;;;;;;;39.92;25.14258;935.4643;;;;
2020/08/20 10:53:04;;;;;;;0;0;;;;;;;40.13;27.11816;935.4133;;;;
2020/08/20 10:55:29;;;;;;;0;0;;;;;;;40.44;25.36621;935.36;;;;
2020/08/20 10:57:54;;;;;;;0;0;;;;;;;40.66;24.69434;935.3513;;;;
2020/08/20 11:00:24;;;;;;;0;0;;;;;;;40.98;23.78223;935.3329;;;;
2020/08/20 11:02:49;;;;;;;0.1;0.1;;;;;;;41.12;25.48926;935.3162;;;;
2020/08/20 11:05:15;;;;;;;0.2;0.1;;;;;;;40.18;25.16895;935.3002;;;;
2020/08/20 11:07:41;;;;;;;0.3;0.1;;;;;;;40.18;23.94922;935.2991;;;;
2020/08/20 11:10:06;;;;;;;0;0;;;;;;;40.43;24.20605;935.3233;;;;
2020/08/20 11:12:30;;;;;;;0;0;;;;;;;40.34;23.04102;935.2872;;;;
2020/08/20 11:14:56;;;;;;;0.1;0.1;;;;;;;40.48;22.41406;935.2828;;;;
2020/08/20 11:17:21;;;;;;;0;0;;;;;;;40.47;21.97363;935.2573;;;;
2020/08/20 11:19:48;;;;;;;0.1;0.1;;;;;;;40.6;23.67773;935.2388;;;;
2020/08/20 11:22:15;;;;;;;0;0;;;;;;;40.29;23.74707;935.2434;;;;
2020/08/20 11:24:40;;;;;;;0.1;0.1;;;;;;;40.05;22.41797;935.2071;;;;
2020/08/20 11:27:06;;;;;;;0.2;0.1;;;;;;;39.42;23.76367;935.2173;;;;
2020/08/20 11:29:31;;;;;;;0.1;0.1;;;;;;;39.44;23.80078;935.1856;;;;
2020/08/20 11:31:56;;;;;;;1.2;0.2;;;;;;;39.15;24.72363;935.1919;;;;
2020/08/20 11:34:21;;;;;;;0.1;0.1;;;;;;;38.99;26.07715;935.2037;;;;
2020/08/20 11:36:46;;;;;;;0;0;;;;;;;38.85;27.20117;935.1319;;;;
2020/08/20 11:39:11;;;;;;;0.2;0.1;;;;;;;37.99;27.2832;935.1465;;;;
2020/08/20 11:41:37;;;;;;;0.1;0.1;;;;;;;37.75;28.10742;935.1371;;;;
2020/08/20 11:44:02;;;;;;;0;0;;;;;;;37.05;25.96777;935.0742;;;;
2020/08/20 11:46:27;;;;;;;0.6;0.2;;;;;;;36.23;28.48535;935.0031;;;;
2020/08/20 11:48:52;;;;;;;0.1;0.1;;;;;;;35.94;28.7334;935.0158;;;;
2020/08/20 11:51:17;;;;;;;0.1;0.1;;;;;;;35.73;28.5752;934.9902;;;;
2020/08/20 11:53:43;;;;;;;0.1;0.1;;;;;;;35.56;28.64941;934.9749;;;;
2020/08/20 11:56:07;;;;;;;0.2;0.2;;;;;;;35.12;28.69434;934.9141;;;;
2020/08/20 11:58:32;;;;;;;0.1;0.1;;;;;;;34.9;29.88672;934.9113;;;;
2020/08/20 12:00:59;;;;;;;0.1;0.1;;;;;;;34.53;34.93555;934.8755;;;;
2020/08/20 12:03:24;;;;;;;0.5;0.3;;;;;;;34.44;34.92871;934.8812;;;;
2020/08/20 12:05:50;;;;;;;0.1;0.1;;;;;;;34.29;34.42383;934.8719;;;;
2020/08/20 12:08:14;;;;;;;0;0;;;;;;;34.22;35.14063;934.8914;;;;
2020/08/20 12:10:40;;;;;;;2.9;0.5;;;;;;;34.3;34.9668;934.8552;;;;
2020/08/20 12:13:05;;;;;;;0.2;0.1;;;;;;;34.34;33.86133;934.8582;;;;
2020/08/20 12:15:30;;;;;;;0.4;0.1;;;;;;;34.27;34.82031;934.8011;;;;
2020/08/20 12:17:58;;;;;;;0.1;0.1;;;;;;;34.32;37.61914;934.7547;;;;
2020/08/20 12:20:23;;;;;;;0;0;;;;;;;34.22;36.2373;934.8318;;;;
2020/08/20 12:22:48;;;;;;;0.1;0.1;;;;;;;34.29;36.39941;934.8008;;;;
2020/08/20 12:25:15;;;;;;;0.1;0.1;;;;;;;34.13;32.71484;934.7711;;;;
2020/08/20 12:27:40;;;;;;;0.3;0.2;;;;;;;33.75;31.03809;934.6873;;;;
2020/08/20 12:30:05;;;;;;;0.2;0.2;;;;;;;33.44;34.68457;934.7095;;;;
2020/08/20 12:32:34;;;;;;;0.1;0.1;;;;;;;33.51;36.07227;934.6669;;;;
2020/08/20 12:34:59;;;;;;;0.3;0.3;;;;;;;33.51;34.71289;934.65;;;;
2020/08/20 12:37:25;;;;;;;0;0;;;;;;;33.38;33.92188;934.6412;;;;
2020/08/20 12:39:50;;;;;;;0.6;0.3;;;;;;;33.17;33.01758;934.5873;;;;
2020/08/20 12:42:15;;;;;;;0.3;0.2;;;;;;;32.91;33.91016;934.5764;;;;
2020/08/20 12:44:41;;;;;;;0.2;0.2;;;;;;;32.8;35.00781;934.6021;;;;
2020/08/20 12:47:06;;;;;;;0.1;0.1;;;;;;;32.65;34.38477;934.6074;;;;
2020/08/20 12:49:32;;;;;;;0.2;0.2;;;;;;;32.84;36.41504;934.5909;;;;
2020/08/20 12:51:57;;;;;;;0.1;0.1;;;;;;;32.73;34.00586;934.5731;;;;
2020/08/20 12:54:22;;;;;;;0.1;0.1;;;;;;;32.7;33.51074;934.5349;;;;
2020/08/20 12:56:47;;;;;;;0.2;0.1;;;;;;;32.74;34.12695;934.5416;;;;
2020/08/20 12:59:12;;;;;;;0.4;0.3;;;;;;;32.94;34.12988;934.4754;;;;
2020/08/20 13:01:38;;;;;;;3.7;0.2;;;;;;;32.97;33.0752;934.5005;;;;
2020/08/20 13:04:05;;;;;;;0.3;0.3;;;;;;;32.94;34.11816;934.4156;;;;
2020/08/20 13:06:31;;;;;;;0.1;0.1;;;;;;;33.02;32.52637;934.3848;;;;
2020/08/20 13:08:58;;;;;;;0.1;0.1;;;;;;;33.04;32.87598;934.3417;;;;
2020/08/20 13:11:23;;;;;;;0.6;0.2;;;;;;;33;32.63281;934.2953;;;;
2020/08/20 13:13:52;;;;;;;0;0;;;;;;;32.95;33.54199;934.3244;;;;
2020/08/20 13:16:17;;;;;;;0.1;0.1;;;;;;;32.98;34.52832;934.2569;;;;
2020/08/20 13:18:43;;;;;;;0.1;0.1;;;;;;;32.88;32.70801;934.2605;;;;
2020/08/20 13:21:08;;;;;;;0;0;;;;;;;32.95;35.69238;934.2778;;;;
2020/08/20 13:23:33;;;;;;;0.2;0.1;;;;;;;33.08;33.91113;934.2413;;;;
2020/08/20 13:26:04;;;;;;;0.2;0.2;;;;;;;33.2;35.01465;934.2438;;;;
2020/08/20 13:28:29;;;;;;;0.2;0.1;;;;;;;33.2;35.08691;934.215;;;;
2020/08/20 13:30:55;;;;;;;0.1;0.1;;;;;;;33.14;35.50293;934.2037;;;;
2020/08/20 13:33:20;;;;;;;0.1;0.1;;;;;;;33.31;36.35645;934.1265;;;;
2020/08/20 13:35:51;;;;;;;0.2;0.2;;;;;;;33.46;36.59766;934.1716;;;;
2020/08/20 13:38:16;;;;;;;0;0;;;;;;;33.49;38.34375;934.1602;;;;
2020/08/20 13:40:51;;;;;;;0;0;;;;;;;33.43;38.3623;934.1674;;;;
2020/08/20 13:43:20;;;;;;;0.2;0.2;;;;;;;33.27;40.54883;934.1802;;;;
2020/08/20 13:45:48;;;;;;;0.3;0.2;;;;;;;33.07;40.50684;934.2209;;;;
2020/08/20 13:48:13;;;;;;;0.2;0.2;;;;;;;32.89;40.43066;934.2229;;;;
2020/08/20 13:50:38;;;;;;;0.1;0.1;;;;;;;32.87;39.75586;934.2186;;;;
2020/08/20 13:53:03;;;;;;;0.3;0.2;;;;;;;32.59;40.83594;934.2511;;;;
2020/08/20 13:55:29;;;;;;;0.1;0.1;;;;;;;32.46;39.76758;934.2217;;;;
2020/08/20 13:57:54;;;;;;;1.1;0.5;;;;;;;32.31;40.40332;934.2804;;;;
2020/08/20 14:00:37;;;;;;;0.2;0.2;;;;;;;32.26;42.50879;934.2523;;;;
2020/08/20 14:03:02;;;;;;;0.4;0.3;;;;;;;32.29;41.20508;934.2985;;;;
2020/08/20 14:05:27;;;;;;;3.6;0.3;;;;;;;32.14;41.34668;934.2846;;;;
2020/08/20 14:07:52;;;;;;;0.2;0.2;;;;;;;31.96;40.74219;934.2458;;;;
2020/08/20 14:10:17;;;;;;;0.2;0.2;;;;;;;31.96;43.49805;934.2375;;;;
2020/08/20 14:12:43;;;;;;;0.3;0.2;;;;;;;31.91;41.87695;934.2668;;;;
2020/08/20 14:15:07;;;;;;;0.7;0.3;;;;;;;31.91;41.81641;934.2374;;;;
2020/08/20 14:17:34;;;;;;;0.1;0.1;;;;;;;31.92;41.99805;934.2575;;;;
2020/08/20 14:19:59;;;;;;;0.5;0.3;;;;;;;31.88;40.18457;934.2156;;;;
2020/08/20 14:22:25;;;;;;;0.2;0.1;;;;;;;31.86;40.87793;934.2179;;;;
2020/08/20 14:24:50;;;;;;;0.3;0.2;;;;;;;31.58;40.83984;934.2281;;;;